createdAt,value
2022-12-05T00:00:56.833Z,103109.59
2022-12-05T00:03:24.184Z,103110.88
2022-12-05T00:05:51.577Z,103111.63
2022-12-05T00:08:19.373Z,103105.56
2022-12-05T00:10:47.206Z,103108.22
2022-12-05T00:13:15.941Z,103101.88
2022-12-05T00:15:45.195Z,103104.34
2022-12-05T00:18:12.906Z,103098.41
2022-12-05T00:20:47.858Z,103100.03
2022-12-05T00:23:15.385Z,103093.78
2022-12-05T00:25:45.011Z,103104.09
2022-12-05T00:28:12.664Z,103100.19
2022-12-05T00:30:40.682Z,103103.41
2022-12-05T00:33:08.744Z,103093.44
2022-12-05T00:35:36.379Z,103097.13
2022-12-05T00:38:03.774Z,103104.69
2022-12-05T00:40:31.150Z,103086.13
2022-12-05T00:42:58.607Z,103095.19
2022-12-05T00:45:25.967Z,103092.31
2022-12-05T00:47:53.280Z,103086.84
2022-12-05T00:50:20.894Z,103079.75
2022-12-05T00:52:48.227Z,103083.16
2022-12-05T00:55:15.593Z,103084.03
2022-12-05T00:57:42.986Z,103074.69
2022-12-05T01:00:10.566Z,103085.41
2022-12-05T01:02:38.071Z,103081.91
2022-12-05T01:05:05.649Z,103083.25
2022-12-05T01:07:33.325Z,103084.09
2022-12-05T01:10:00.693Z,103070.03
2022-12-05T01:12:28.290Z,103063.03
2022-12-05T01:14:55.778Z,103054.44
2022-12-05T01:17:23.104Z,103058.56
2022-12-05T01:19:50.488Z,103065.75
2022-12-05T01:22:18.830Z,103055.56
2022-12-05T01:24:46.162Z,103050.59
2022-12-05T01:27:13.581Z,103045.63
2022-12-05T01:29:40.967Z,103063.09
2022-12-05T01:32:08.480Z,103051.13
2022-12-05T01:34:35.989Z,103044.06
2022-12-05T01:37:03.441Z,103058.31
2022-12-05T01:39:30.943Z,103046.25
2022-12-05T01:41:58.258Z,103051.84
2022-12-05T01:44:25.547Z,103052.84
2022-12-05T01:46:53.116Z,103050.97
2022-12-05T01:49:24.458Z,103059.13
2022-12-05T01:51:56.677Z,103051.09
2022-12-05T01:54:24.454Z,103045.44
2022-12-05T01:57:01.798Z,103047.38
2022-12-05T01:59:32.414Z,103046.06
2022-12-05T02:01:59.904Z,103038.06
2022-12-05T02:04:27.918Z,103045.94
2022-12-05T02:06:55.275Z,103038.28
2022-12-05T02:09:23.102Z,103041.81
2022-12-05T02:11:54.239Z,103042.56
2022-12-05T02:14:44.244Z,103054.38
2022-12-05T02:17:34.982Z,103032.25
2022-12-05T02:20:14.767Z,103043.88
2022-12-05T02:23:01.178Z,103042.97
2022-12-05T02:25:44.390Z,103037.78
2022-12-05T02:28:30.384Z,103039.59
2022-12-05T02:30:58.367Z,103040.88
2022-12-05T02:33:40.919Z,103039.44
2022-12-05T02:36:12.175Z,103040.09
2022-12-05T02:38:41.694Z,103038.38
2022-12-05T02:41:11.924Z,103032.81
2022-12-05T02:43:41.173Z,103038.44
2022-12-05T02:46:13.213Z,103039.19
2022-12-05T02:48:40.657Z,103035.16
2022-12-05T02:51:07.942Z,103041.81
2022-12-05T02:53:35.313Z,103032.72
2022-12-05T02:56:02.732Z,103037.19
2022-12-05T02:58:38.607Z,103036.38
2022-12-05T03:01:06.293Z,103028.50
2022-12-05T03:03:33.794Z,103037.03
2022-12-05T03:06:01.346Z,103036.25
2022-12-05T03:08:30.130Z,103027.38
2022-12-05T03:10:57.451Z,103028.38
2022-12-05T03:13:26.889Z,103032.75
2022-12-05T03:15:55.709Z,103042.28
2022-12-05T03:18:27.301Z,103041.84
2022-12-05T03:20:59.527Z,103042.94
2022-12-05T03:23:30.023Z,103047.63
2022-12-05T03:26:12.137Z,103049.34
2022-12-05T03:29:18.474Z,103054.94
2022-12-05T03:31:51.965Z,103051.13
2022-12-05T03:34:39.794Z,103047.97
2022-12-05T03:37:09.848Z,103049.16
2022-12-05T03:39:37.410Z,103051.53
2022-12-05T03:42:14.028Z,103055.44
2022-12-05T03:44:47.916Z,103051.97
2022-12-05T03:47:26.093Z,103046.94
2022-12-05T03:49:56.318Z,103055.44
2022-12-05T03:52:25.519Z,103040.53
2022-12-05T03:54:53.864Z,103052.25
2022-12-05T03:57:36.762Z,103050.69
2022-12-05T04:00:18.979Z,103054.53
2022-12-05T04:02:54.686Z,103059.88
2022-12-05T04:05:27.023Z,103058.31
2022-12-05T04:07:56.723Z,103066.28
2022-12-05T04:10:26.297Z,103063.69
2022-12-05T04:12:54.319Z,103059.25
2022-12-05T04:15:23.609Z,103064.91
2022-12-05T04:17:54.095Z,103060.81
2022-12-05T04:20:41.744Z,103060.81
2022-12-05T04:23:10.403Z,103055.69
2022-12-05T04:25:40.027Z,103049.34
2022-12-05T04:28:26.385Z,103047.38
2022-12-05T04:30:57.400Z,103049.94
2022-12-05T04:33:42.106Z,103030.19
2022-12-05T04:36:19.211Z,103043.38
2022-12-05T04:39:02.050Z,103039.00
2022-12-05T04:41:49.697Z,103035.56
2022-12-05T04:44:17.735Z,103040.81
2022-12-05T04:46:45.079Z,103040.81
2022-12-05T04:49:13.684Z,103050.66
2022-12-05T04:51:40.992Z,103048.50
2022-12-05T04:54:18.436Z,103052.72
2022-12-05T04:56:46.007Z,103042.47
2022-12-05T04:59:13.286Z,103054.63
2022-12-05T05:01:51.599Z,103047.88
2022-12-05T05:04:23.793Z,103047.97
2022-12-05T05:06:51.561Z,103038.19
2022-12-05T05:09:18.907Z,103042.38
2022-12-05T05:11:46.197Z,103037.63
2022-12-05T05:14:13.709Z,103040.88
2022-12-05T05:16:41.449Z,103036.28
2022-12-05T05:19:10.581Z,103036.41
2022-12-05T05:21:38.687Z,103033.31
2022-12-05T05:24:06.370Z,103039.09
2022-12-05T05:26:35.521Z,103032.31
2022-12-05T05:29:02.917Z,103042.31
2022-12-05T05:31:30.484Z,103033.22
2022-12-05T05:33:57.899Z,103029.44
2022-12-05T05:36:25.931Z,103036.84
2022-12-05T05:38:54.179Z,103031.69
2022-12-05T05:41:22.619Z,103033.16
2022-12-05T05:43:50.116Z,103033.63
2022-12-05T05:46:18.363Z,103028.19
2022-12-05T05:48:45.699Z,103031.84
2022-12-05T05:51:13.422Z,103023.25
2022-12-05T14:42:41.901Z,102706.22
2022-12-05T14:45:18.462Z,102708.19
2022-12-05T14:47:52.803Z,102702.13
2022-12-05T14:50:32.433Z,102695.34
2022-12-05T14:53:15.350Z,102710.16
2022-12-05T14:55:46.578Z,102700.63
2022-12-05T14:58:18.531Z,102709.75
2022-12-05T15:00:48.263Z,102701.16
2022-12-05T15:03:21.516Z,102697.72
2022-12-05T15:05:49.488Z,102712.94
2022-12-05T15:08:16.961Z,102704.88
2022-12-05T15:10:45.811Z,102709.91
2022-12-05T15:13:20.785Z,102708.69
2022-12-05T15:16:08.466Z,102728.19
2022-12-05T15:18:40.411Z,102709.84
2022-12-05T15:21:26.141Z,102714.00
2022-12-05T15:23:54.298Z,102711.59
2022-12-05T15:26:47.200Z,102712.03
2022-12-05T15:29:23.468Z,102709.66
2022-12-05T15:32:14.117Z,102716.06
2022-12-05T15:34:47.683Z,102722.09
2022-12-05T15:37:18.504Z,102716.66
2022-12-05T15:40:01.842Z,102715.28
2022-12-05T15:42:50.247Z,102709.63
2022-12-05T15:45:23.660Z,102701.81
2022-12-05T15:47:55.103Z,102698.75
2022-12-05T15:50:27.635Z,102704.31
2022-12-05T15:53:05.797Z,102709.97
2022-12-05T15:55:35.676Z,102706.44
2022-12-05T15:58:13.449Z,102699.16
2022-12-05T16:00:41.963Z,102704.59
2022-12-05T16:03:18.174Z,102705.69
2022-12-05T16:05:55.889Z,102702.84
2022-12-05T16:08:24.634Z,102708.63
2022-12-05T16:10:52.321Z,102704.69
2022-12-05T16:13:20.780Z,102700.88
2022-12-05T16:15:52.766Z,102707.78
2022-12-05T16:18:27.829Z,102701.34
2022-12-05T16:20:55.198Z,102701.44
2022-12-05T16:23:25.679Z,102683.97
2022-12-05T16:25:53.452Z,102693.22
2022-12-05T16:28:21.773Z,102696.38
2022-12-05T16:31:07.634Z,102699.84
2022-12-05T16:33:40.195Z,102691.91
2022-12-05T16:36:11.250Z,102691.16
2022-12-05T16:38:41.041Z,102694.31
2022-12-05T16:41:09.364Z,102703.72
2022-12-05T16:43:36.856Z,102696.38
2022-12-05T16:46:13.690Z,102697.09
2022-12-05T16:48:42.214Z,102691.81
2022-12-05T16:51:13.709Z,102695.72
2022-12-05T16:53:41.795Z,102693.94
2022-12-05T16:56:29.913Z,102693.53
2022-12-05T16:58:57.657Z,102689.06
2022-12-05T17:01:26.020Z,102697.63
2022-12-05T17:03:54.096Z,102698.25
2022-12-05T17:06:23.538Z,102696.56
2022-12-05T17:08:51.560Z,102694.41
2022-12-05T17:11:23.109Z,102683.66
2022-12-05T17:13:50.994Z,102679.63
2022-12-05T17:16:18.509Z,102680.28
2022-12-05T17:18:46.100Z,102669.00
2022-12-05T17:21:23.276Z,102692.66
2022-12-05T17:23:51.065Z,102688.59
2022-12-05T17:26:19.451Z,102681.69
2022-12-05T17:28:47.713Z,102689.31
2022-12-05T17:31:17.514Z,102685.19
2022-12-05T17:33:46.147Z,102682.63
2022-12-05T17:36:20.716Z,102685.25
2022-12-05T17:38:48.453Z,102684.34
2022-12-05T17:41:23.284Z,102678.47
2022-12-05T17:43:52.107Z,102679.00
2022-12-05T17:46:23.358Z,102678.53
2022-12-05T17:48:51.190Z,102682.19
2022-12-05T17:51:19.346Z,102676.25
2022-12-05T17:53:47.629Z,102680.31
2022-12-05T17:56:15.433Z,102676.97
2022-12-05T17:58:42.957Z,102680.63
2022-12-05T18:01:14.696Z,102672.81
2022-12-05T18:03:42.708Z,102676.97
2022-12-05T18:06:10.327Z,102670.25
2022-12-05T18:08:42.215Z,102678.97
2022-12-05T18:11:09.919Z,102671.88
2022-12-05T18:13:38.806Z,102671.56
2022-12-05T18:16:06.508Z,102667.41
2022-12-05T18:18:34.744Z,102672.94
2022-12-05T18:21:06.263Z,102667.22
2022-12-05T18:23:34.525Z,102672.59
2022-12-05T18:26:01.999Z,102661.97
2022-12-05T18:28:29.725Z,102661.09
2022-12-05T18:31:06.948Z,102663.16
2022-12-05T18:33:34.842Z,102670.38
2022-12-05T18:36:06.330Z,102671.75
2022-12-05T18:38:34.110Z,102664.53
2022-12-05T18:41:01.881Z,102661.84
2022-12-05T18:43:30.502Z,102643.91
2022-12-05T18:45:58.836Z,102641.28
2022-12-05T18:48:46.094Z,102650.84
2022-12-05T18:51:21.516Z,102654.41
2022-12-05T18:53:53.389Z,102646.28
2022-12-05T18:56:28.328Z,102634.28
2022-12-05T18:58:56.542Z,102637.66
2022-12-05T19:01:24.128Z,102635.47
2022-12-05T19:03:51.748Z,102644.44
2022-12-05T19:06:20.292Z,102632.28
2022-12-05T19:08:47.782Z,102644.97
2022-12-05T19:11:16.771Z,102640.25
2022-12-05T19:13:44.308Z,102644.06
2022-12-05T19:16:14.610Z,102648.38
2022-12-05T19:18:42.138Z,102646.50
2022-12-05T19:21:09.520Z,102658.53
2022-12-05T19:23:37.093Z,102644.97
2022-12-05T19:26:05.469Z,102652.00
2022-12-05T19:28:33.615Z,102645.59
2022-12-05T19:31:03.995Z,102653.97
2022-12-05T19:33:35.681Z,102644.19
2022-12-05T19:36:13.352Z,102643.59
2022-12-05T19:38:41.656Z,102633.25
2022-12-05T19:41:09.764Z,102637.06
2022-12-05T19:43:37.391Z,102629.75
2022-12-05T19:46:05.563Z,102628.72
2022-12-05T19:48:33.135Z,102621.38
2022-12-05T19:51:00.724Z,102622.25
2022-12-05T19:53:28.806Z,102628.72
2022-12-05T19:56:02.878Z,102635.00
2022-12-05T19:58:35.289Z,102632.41
2022-12-05T20:01:13.376Z,102638.06
2022-12-05T20:03:41.145Z,102631.28
2022-12-05T20:06:10.566Z,102636.31
2022-12-05T20:08:41.164Z,102636.75
2022-12-05T20:11:09.582Z,102626.16
2022-12-05T20:13:52.520Z,102628.25
2022-12-05T20:16:21.538Z,102625.56
2022-12-05T20:18:49.175Z,102640.84
2022-12-05T20:21:17.260Z,102636.03
2022-12-05T20:23:44.665Z,102631.19
2022-12-05T20:26:13.099Z,102634.81
2022-12-05T20:28:40.507Z,102623.06
2022-12-05T20:31:12.473Z,102630.88
2022-12-05T20:33:40.134Z,102636.50
2022-12-05T20:36:08.723Z,102624.41
2022-12-05T20:38:36.778Z,102635.44
2022-12-05T20:41:05.106Z,102628.19
2022-12-05T20:43:32.800Z,102634.28
2022-12-05T20:46:07.679Z,102622.78
2022-12-05T20:48:35.949Z,102625.47
2022-12-05T20:51:07.405Z,102633.28
2022-12-05T20:53:35.830Z,102634.09
2022-12-05T20:56:08.477Z,102621.44
2022-12-05T20:58:36.241Z,102626.44
2022-12-05T21:01:04.804Z,102612.63
2022-12-05T21:03:32.497Z,102611.47
2022-12-05T21:05:59.928Z,102612.03
2022-12-05T21:08:27.858Z,102613.91
2022-12-05T21:10:55.514Z,102614.97
2022-12-05T21:13:23.033Z,102613.34
2022-12-05T21:15:51.086Z,102606.59
2022-12-05T21:18:18.782Z,102612.97
2022-12-05T21:20:57.670Z,102621.53
2022-12-05T21:23:25.211Z,102608.91
2022-12-05T21:25:52.622Z,102616.13
2022-12-05T21:28:20.166Z,102617.97
2022-12-05T21:30:47.640Z,102608.53
2022-12-05T21:33:15.242Z,102613.44
2022-12-05T21:35:42.678Z,102610.63
2022-12-05T21:38:10.221Z,102612.09
2022-12-05T21:40:37.661Z,102614.13
2022-12-05T21:43:05.205Z,102617.88
2022-12-05T21:45:32.781Z,102611.13
2022-12-05T21:48:00.236Z,102608.41
2022-12-05T21:50:27.704Z,102609.00
2022-12-05T21:52:56.070Z,102596.28
2022-12-05T21:55:23.516Z,102603.13
2022-12-05T21:57:51.229Z,102602.03
2022-12-05T22:00:19.070Z,102591.16
2022-12-05T22:02:46.819Z,102583.63
2022-12-05T22:05:14.231Z,102586.22
2022-12-05T22:07:41.721Z,102588.56
2022-12-05T22:10:10.214Z,102589.31
2022-12-05T22:12:39.947Z,102584.56
2022-12-05T22:15:07.916Z,102590.06
2022-12-05T22:17:35.806Z,102588.34
2022-12-05T22:20:03.820Z,102589.03
2022-12-05T22:22:31.446Z,102592.50
2022-12-05T22:24:59.311Z,102583.59
2022-12-05T22:27:27.544Z,102583.91
2022-12-05T22:29:55.212Z,102586.81
2022-12-05T22:32:22.657Z,102577.63
2022-12-05T22:34:50.354Z,102564.22
2022-12-05T22:37:17.677Z,102564.78
2022-12-05T22:39:46.362Z,102576.25
2022-12-05T22:42:13.722Z,102563.56
2022-12-05T22:44:41.089Z,102572.38
2022-12-05T22:47:10.938Z,102560.38
2022-12-05T22:49:39.194Z,102553.41
2022-12-05T22:52:06.716Z,102557.88
2022-12-05T22:54:34.071Z,102551.78
2022-12-05T22:57:01.538Z,102553.38
2022-12-05T22:59:29.020Z,102548.75
